Bury, United Kingdom
Current Conditions -  °F | °C
As of 11:20 PM on Saturday 20 Dec 2014 (Local Time) from EGCC Reporting Station
Broken Clouds Broken Clouds  
Wind Chill: 37°   Ceiling: 4400
Heat Index: 43°   Visibility: 6mi
Dew Point: 39°   Wind: 10mph
Humidity: 87%   Direction: 230°SW
Pressure: 30.36"   Gusts: NA
Location:  53.59°N, 2.3°W
Report Text: EGCC 202320Z 23009KT 180V240 9999 FEW024 SCT037 BKN044 06/04 Q1028
Loading
Personal Weather Stations






























Interactive Weather Map New forecast layout! Learn more

10-Day Weather Forecast

Advertisements
Track Severe Weather on mobile